sensor_id;sensor_type;location;lat;lon;timestamp;P1;durP1;ratioP1;P2;durP2;ratioP2
47912;SDS011;33676;51.006;17.180;2023-04-01T00:02:21;6.60;;;6.00;;
47912;SDS011;33676;51.006;17.180;2023-04-01T00:04:54;7.40;;;6.80;;
47912;SDS011;33676;51.006;17.180;2023-04-01T00:07:32;7.20;;;6.50;;
47912;SDS011;33676;51.006;17.180;2023-04-01T00:10:04;7.00;;;6.40;;
47912;SDS011;33676;51.006;17.180;2023-04-01T00:12:40;6.60;;;6.00;;
47912;SDS011;33676;51.006;17.180;2023-04-01T00:15:15;7.10;;;6.50;;
47912;SDS011;33676;51.006;17.180;2023-04-01T00:17:46;6.50;;;6.00;;
47912;SDS011;33676;51.006;17.180;2023-04-01T00:20:16;8.30;;;6.00;;
47912;SDS011;33676;51.006;17.180;2023-04-01T00:22:48;7.50;;;6.70;;
47912;SDS011;33676;51.006;17.180;2023-04-01T00:25:18;7.20;;;6.30;;
47912;SDS011;33676;51.006;17.180;2023-04-01T00:27:50;7.90;;;7.20;;
47912;SDS011;33676;51.006;17.180;2023-04-01T00:30:19;7.50;;;6.90;;
47912;SDS011;33676;51.006;17.180;2023-04-01T00:32:51;7.60;;;6.90;;
47912;SDS011;33676;51.006;17.180;2023-04-01T00:35:21;7.70;;;7.10;;
47912;SDS011;33676;51.006;17.180;2023-04-01T00:37:50;7.70;;;6.90;;
47912;SDS011;33676;51.006;17.180;2023-04-01T00:43:11;8.40;;;7.60;;
47912;SDS011;33676;51.006;17.180;2023-04-01T00:45:42;8.00;;;7.30;;
47912;SDS011;33676;51.006;17.180;2023-04-01T00:48:22;8.40;;;7.40;;
47912;SDS011;33676;51.006;17.180;2023-04-01T00:51:17;12.00;;;8.50;;
47912;SDS011;33676;51.006;17.180;2023-04-01T00:53:50;8.80;;;8.00;;
47912;SDS011;33676;51.006;17.180;2023-04-01T00:56:27;8.40;;;7.60;;
47912;SDS011;33676;51.006;17.180;2023-04-01T00:59:08;8.60;;;7.80;;
47912;SDS011;33676;51.006;17.180;2023-04-01T01:01:41;9.60;;;8.80;;
47912;SDS011;33676;51.006;17.180;2023-04-01T01:04:25;9.60;;;8.60;;
47912;SDS011;33676;51.006;17.180;2023-04-01T01:10:01;8.20;;;7.60;;
47912;SDS011;33676;51.006;17.180;2023-04-01T01:12:46;9.90;;;9.10;;
47912;SDS011;33676;51.006;17.180;2023-04-01T01:15:53;8.90;;;7.80;;
47912;SDS011;33676;51.006;17.180;2023-04-01T01:24:12;10.10;;;9.10;;
47912;SDS011;33676;51.006;17.180;2023-04-01T01:27:13;8.70;;;7.90;;
47912;SDS011;33676;51.006;17.180;2023-04-01T01:29:58;9.50;;;8.70;;
47912;SDS011;33676;51.006;17.180;2023-04-01T01:35:43;9.60;;;8.50;;
47912;SDS011;33676;51.006;17.180;2023-04-01T01:38:18;7.70;;;7.00;;
47912;SDS011;33676;51.006;17.180;2023-04-01T01:40:51;7.10;;;6.60;;
47912;SDS011;33676;51.006;17.180;2023-04-01T01:43:29;9.00;;;8.20;;
47912;SDS011;33676;51.006;17.180;2023-04-01T01:46:03;7.40;;;6.80;;
47912;SDS011;33676;51.006;17.180;2023-04-01T01:48:36;7.50;;;6.90;;
47912;SDS011;33676;51.006;17.180;2023-04-01T01:51:06;8.60;;;7.90;;
47912;SDS011;33676;51.006;17.180;2023-04-01T01:53:36;7.00;;;6.40;;
47912;SDS011;33676;51.006;17.180;2023-04-01T01:56:04;7.40;;;6.80;;
47912;SDS011;33676;51.006;17.180;2023-04-01T01:58:36;7.90;;;7.20;;
47912;SDS011;33676;51.006;17.180;2023-04-01T02:01:17;7.30;;;6.60;;
47912;SDS011;33676;51.006;17.180;2023-04-01T02:03:52;7.60;;;7.10;;
47912;SDS011;33676;51.006;17.180;2023-04-01T02:06:22;7.30;;;6.80;;
47912;SDS011;33676;51.006;17.180;2023-04-01T02:09:01;7.30;;;6.80;;
47912;SDS011;33676;51.006;17.180;2023-04-01T02:11:49;6.60;;;6.10;;
47912;SDS011;33676;51.006;17.180;2023-04-01T02:17:34;6.20;;;5.60;;
47912;SDS011;33676;51.006;17.180;2023-04-01T02:20:18;6.90;;;6.10;;
47912;SDS011;33676;51.006;17.180;2023-04-01T02:22:51;7.80;;;6.30;;
47912;SDS011;33676;51.006;17.180;2023-04-01T02:25:35;7.70;;;7.10;;
47912;SDS011;33676;51.006;17.180;2023-04-01T02:28:06;6.40;;;5.80;;
47912;SDS011;33676;51.006;17.180;2023-04-01T02:30:38;6.60;;;6.10;;
47912;SDS011;33676;51.006;17.180;2023-04-01T02:33:10;6.80;;;5.50;;
47912;SDS011;33676;51.006;17.180;2023-04-01T02:35:39;6.90;;;6.30;;
47912;SDS011;33676;51.006;17.180;2023-04-01T02:38:08;6.50;;;5.90;;
47912;SDS011;33676;51.006;17.180;2023-04-01T02:40:49;6.90;;;6.00;;
47912;SDS011;33676;51.006;17.180;2023-04-01T02:43:19;6.80;;;6.30;;
47912;SDS011;33676;51.006;17.180;2023-04-01T02:45:49;6.80;;;6.10;;
47912;SDS011;33676;51.006;17.180;2023-04-01T02:48:18;6.50;;;5.90;;
47912;SDS011;33676;51.006;17.180;2023-04-01T02:50:47;7.00;;;6.30;;
47912;SDS011;33676;51.006;17.180;2023-04-01T02:53:16;6.10;;;5.50;;
47912;SDS011;33676;51.006;17.180;2023-04-01T02:55:45;6.50;;;5.90;;
47912;SDS011;33676;51.006;17.180;2023-04-01T02:58:14;5.80;;;5.40;;
47912;SDS011;33676;51.006;17.180;2023-04-01T03:00:43;6.40;;;5.90;;
47912;SDS011;33676;51.006;17.180;2023-04-01T03:03:13;5.90;;;5.40;;
47912;SDS011;33676;51.006;17.180;2023-04-01T03:05:41;6.20;;;5.70;;
47912;SDS011;33676;51.006;17.180;2023-04-01T03:08:10;5.60;;;5.20;;
47912;SDS011;33676;51.006;17.180;2023-04-01T03:10:39;8.00;;;5.80;;
47912;SDS011;33676;51.006;17.180;2023-04-01T03:13:08;5.20;;;4.80;;
47912;SDS011;33676;51.006;17.180;2023-04-01T03:15:36;5.60;;;5.00;;
47912;SDS011;33676;51.006;17.180;2023-04-01T03:18:05;5.50;;;5.00;;
47912;SDS011;33676;51.006;17.180;2023-04-01T03:20:34;4.50;;;4.20;;
47912;SDS011;33676;51.006;17.180;2023-04-01T03:23:02;5.30;;;4.90;;
47912;SDS011;33676;51.006;17.180;2023-04-01T03:25:31;6.00;;;5.60;;
47912;SDS011;33676;51.006;17.180;2023-04-01T03:28:00;5.00;;;4.60;;
47912;SDS011;33676;51.006;17.180;2023-04-01T03:30:29;5.70;;;5.20;;
47912;SDS011;33676;51.006;17.180;2023-04-01T03:32:59;5.60;;;5.10;;
47912;SDS011;33676;51.006;17.180;2023-04-01T03:35:28;6.30;;;5.80;;
47912;SDS011;33676;51.006;17.180;2023-04-01T03:37:58;6.60;;;5.50;;
47912;SDS011;33676;51.006;17.180;2023-04-01T03:40:26;6.70;;;5.60;;
47912;SDS011;33676;51.006;17.180;2023-04-01T03:42:55;5.90;;;5.40;;
47912;SDS011;33676;51.006;17.180;2023-04-01T03:45:24;5.40;;;5.00;;
47912;SDS011;33676;51.006;17.180;2023-04-01T03:47:52;7.60;;;7.00;;
47912;SDS011;33676;51.006;17.180;2023-04-01T03:50:22;6.60;;;6.10;;
47912;SDS011;33676;51.006;17.180;2023-04-01T03:52:50;6.90;;;6.30;;
47912;SDS011;33676;51.006;17.180;2023-04-01T03:55:19;6.60;;;6.10;;
47912;SDS011;33676;51.006;17.180;2023-04-01T03:57:48;6.70;;;6.10;;
47912;SDS011;33676;51.006;17.180;2023-04-01T04:00:16;7.00;;;6.40;;
47912;SDS011;33676;51.006;17.180;2023-04-01T04:02:45;5.80;;;5.40;;
47912;SDS011;33676;51.006;17.180;2023-04-01T04:05:14;7.10;;;6.50;;
47912;SDS011;33676;51.006;17.180;2023-04-01T04:07:42;6.80;;;6.20;;
47912;SDS011;33676;51.006;17.180;2023-04-01T04:10:11;6.30;;;5.80;;
47912;SDS011;33676;51.006;17.180;2023-04-01T04:12:39;7.20;;;6.10;;
47912;SDS011;33676;51.006;17.180;2023-04-01T04:15:09;5.50;;;5.10;;
47912;SDS011;33676;51.006;17.180;2023-04-01T04:17:38;4.70;;;4.30;;
47912;SDS011;33676;51.006;17.180;2023-04-01T04:20:07;5.20;;;4.50;;
47912;SDS011;33676;51.006;17.180;2023-04-01T04:22:36;5.20;;;4.60;;
47912;SDS011;33676;51.006;17.180;2023-04-01T04:25:05;5.00;;;4.50;;
47912;SDS011;33676;51.006;17.180;2023-04-01T04:27:35;4.70;;;4.40;;
47912;SDS011;33676;51.006;17.180;2023-04-01T04:30:05;5.30;;;4.30;;
47912;SDS011;33676;51.006;17.180;2023-04-01T04:32:35;5.10;;;4.60;;
47912;SDS011;33676;51.006;17.180;2023-04-01T04:35:04;6.20;;;5.10;;
47912;SDS011;33676;51.006;17.180;2023-04-01T04:37:34;4.20;;;3.90;;
47912;SDS011;33676;51.006;17.180;2023-04-01T04:40:03;6.10;;;4.90;;
47912;SDS011;33676;51.006;17.180;2023-04-01T04:42:32;10.10;;;5.30;;
47912;SDS011;33676;51.006;17.180;2023-04-01T04:45:00;7.20;;;4.90;;
47912;SDS011;33676;51.006;17.180;2023-04-01T04:47:28;7.00;;;5.60;;
47912;SDS011;33676;51.006;17.180;2023-04-01T04:49:57;5.20;;;4.70;;
47912;SDS011;33676;51.006;17.180;2023-04-01T04:52:26;5.00;;;4.60;;
47912;SDS011;33676;51.006;17.180;2023-04-01T04:54:56;6.20;;;4.90;;
47912;SDS011;33676;51.006;17.180;2023-04-01T04:57:25;5.20;;;4.70;;
47912;SDS011;33676;51.006;17.180;2023-04-01T04:59:57;5.30;;;4.80;;
47912;SDS011;33676;51.006;17.180;2023-04-01T05:02:28;5.40;;;4.90;;
47912;SDS011;33676;51.006;17.180;2023-04-01T05:04:59;6.50;;;4.40;;
47912;SDS011;33676;51.006;17.180;2023-04-01T05:07:29;4.30;;;3.90;;
47912;SDS011;33676;51.006;17.180;2023-04-01T05:09:58;3.70;;;3.40;;
47912;SDS011;33676;51.006;17.180;2023-04-01T05:12:29;5.10;;;4.20;;
47912;SDS011;33676;51.006;17.180;2023-04-01T05:15:04;3.90;;;3.60;;
47912;SDS011;33676;51.006;17.180;2023-04-01T05:17:35;3.60;;;3.30;;
47912;SDS011;33676;51.006;17.180;2023-04-01T05:20:07;4.30;;;3.90;;
47912;SDS011;33676;51.006;17.180;2023-04-01T05:22:39;5.30;;;4.50;;
47912;SDS011;33676;51.006;17.180;2023-04-01T05:25:09;4.90;;;4.40;;
47912;SDS011;33676;51.006;17.180;2023-04-01T05:27:40;4.80;;;4.40;;
47912;SDS011;33676;51.006;17.180;2023-04-01T05:30:12;4.90;;;4.50;;
47912;SDS011;33676;51.006;17.180;2023-04-01T05:32:43;4.50;;;4.10;;
47912;SDS011;33676;51.006;17.180;2023-04-01T05:35:14;4.40;;;4.00;;
47912;SDS011;33676;51.006;17.180;2023-04-01T05:37:44;3.90;;;3.60;;
47912;SDS011;33676;51.006;17.180;2023-04-01T05:40:14;4.80;;;4.40;;
47912;SDS011;33676;51.006;17.180;2023-04-01T05:42:45;4.30;;;3.90;;
47912;SDS011;33676;51.006;17.180;2023-04-01T05:45:15;4.50;;;4.10;;
47912;SDS011;33676;51.006;17.180;2023-04-01T05:47:46;5.10;;;4.50;;
47912;SDS011;33676;51.006;17.180;2023-04-01T05:50:16;4.40;;;4.00;;
47912;SDS011;33676;51.006;17.180;2023-04-01T05:52:48;4.30;;;4.00;;
47912;SDS011;33676;51.006;17.180;2023-04-01T05:55:18;4.30;;;3.80;;
47912;SDS011;33676;51.006;17.180;2023-04-01T05:57:50;4.00;;;3.70;;
47912;SDS011;33676;51.006;17.180;2023-04-01T06:00:20;3.90;;;3.50;;
47912;SDS011;33676;51.006;17.180;2023-04-01T06:02:51;4.10;;;3.60;;
47912;SDS011;33676;51.006;17.180;2023-04-01T06:05:27;5.70;;;4.70;;
47912;SDS011;33676;51.006;17.180;2023-04-01T06:08:13;5.00;;;3.70;;
47912;SDS011;33676;51.006;17.180;2023-04-01T06:23:55;4.70;;;4.30;;
47912;SDS011;33676;51.006;17.180;2023-04-01T06:43:19;4.10;;;3.70;;
47912;SDS011;33676;51.006;17.180;2023-04-01T06:55:12;5.40;;;3.20;;
47912;SDS011;33676;51.006;17.180;2023-04-01T06:58:11;3.90;;;3.60;;
47912;SDS011;33676;51.006;17.180;2023-04-01T07:00:49;4.30;;;3.90;;
47912;SDS011;33676;51.006;17.180;2023-04-01T07:03:43;4.00;;;3.70;;
47912;SDS011;33676;51.006;17.180;2023-04-01T07:06:31;4.20;;;3.90;;
47912;SDS011;33676;51.006;17.180;2023-04-01T07:09:16;4.50;;;4.10;;
47912;SDS011;33676;51.006;17.180;2023-04-01T07:12:14;4.60;;;4.30;;
47912;SDS011;33676;51.006;17.180;2023-04-01T07:14:51;4.80;;;4.30;;
47912;SDS011;33676;51.006;17.180;2023-04-01T07:17:25;4.80;;;4.30;;
47912;SDS011;33676;51.006;17.180;2023-04-01T07:23:02;3.80;;;3.50;;
47912;SDS011;33676;51.006;17.180;2023-04-01T07:25:56;4.10;;;3.40;;
47912;SDS011;33676;51.006;17.180;2023-04-01T07:28:31;5.30;;;3.70;;
47912;SDS011;33676;51.006;17.180;2023-04-01T07:31:20;4.40;;;4.10;;
47912;SDS011;33676;51.006;17.180;2023-04-01T07:36:47;4.60;;;4.30;;
47912;SDS011;33676;51.006;17.180;2023-04-01T07:45:43;3.80;;;3.50;;
47912;SDS011;33676;51.006;17.180;2023-04-01T07:48:30;4.10;;;3.40;;
47912;SDS011;33676;51.006;17.180;2023-04-01T07:53:59;4.40;;;2.90;;
47912;SDS011;33676;51.006;17.180;2023-04-01T07:56:47;3.60;;;2.50;;
47912;SDS011;33676;51.006;17.180;2023-04-01T08:05:35;2.90;;;2.70;;
47912;SDS011;33676;51.006;17.180;2023-04-01T08:08:36;4.30;;;2.80;;
47912;SDS011;33676;51.006;17.180;2023-04-01T08:15:10;4.70;;;3.40;;
47912;SDS011;33676;51.006;17.180;2023-04-01T08:20:46;5.60;;;4.10;;
47912;SDS011;33676;51.006;17.180;2023-04-01T08:23:22;4.40;;;3.40;;
47912;SDS011;33676;51.006;17.180;2023-04-01T08:26:33;4.90;;;3.40;;
47912;SDS011;33676;51.006;17.180;2023-04-01T08:29:17;3.60;;;2.70;;
47912;SDS011;33676;51.006;17.180;2023-04-01T08:32:12;3.10;;;2.90;;
47912;SDS011;33676;51.006;17.180;2023-04-01T08:34:51;4.00;;;2.90;;
47912;SDS011;33676;51.006;17.180;2023-04-01T08:37:32;5.30;;;3.00;;
47912;SDS011;33676;51.006;17.180;2023-04-01T08:43:43;4.20;;;3.50;;
47912;SDS011;33676;51.006;17.180;2023-04-01T08:55:25;3.00;;;2.70;;
47912;SDS011;33676;51.006;17.180;2023-04-01T09:01:20;3.60;;;3.20;;
47912;SDS011;33676;51.006;17.180;2023-04-01T09:13:10;6.60;;;3.50;;
47912;SDS011;33676;51.006;17.180;2023-04-01T09:16:20;4.10;;;3.20;;
47912;SDS011;33676;51.006;17.180;2023-04-01T09:22:37;4.40;;;3.20;;
47912;SDS011;33676;51.006;17.180;2023-04-01T09:25:38;4.00;;;3.30;;
47912;SDS011;33676;51.006;17.180;2023-04-01T09:28:47;3.80;;;3.00;;
47912;SDS011;33676;51.006;17.180;2023-04-01T09:44:03;4.40;;;3.40;;
47912;SDS011;33676;51.006;17.180;2023-04-01T09:52:43;5.20;;;4.40;;
47912;SDS011;33676;51.006;17.180;2023-04-01T09:56:13;4.00;;;3.80;;
47912;SDS011;33676;51.006;17.180;2023-04-01T09:59:32;4.70;;;4.20;;
47912;SDS011;33676;51.006;17.180;2023-04-01T10:27:01;5.90;;;5.20;;
47912;SDS011;33676;51.006;17.180;2023-04-01T10:36:53;5.30;;;4.90;;
47912;SDS011;33676;51.006;17.180;2023-04-01T10:39:56;3.90;;;3.60;;
47912;SDS011;33676;51.006;17.180;2023-04-01T10:53:49;5.60;;;4.50;;
47912;SDS011;33676;51.006;17.180;2023-04-01T11:04:07;2.50;;;2.30;;
47912;SDS011;33676;51.006;17.180;2023-04-01T11:14:03;2.80;;;2.70;;
47912;SDS011;33676;51.006;17.180;2023-04-01T11:29:30;4.40;;;3.90;;
47912;SDS011;33676;51.006;17.180;2023-04-01T11:32:50;4.50;;;4.20;;
47912;SDS011;33676;51.006;17.180;2023-04-01T11:41:49;5.40;;;5.00;;
47912;SDS011;33676;51.006;17.180;2023-04-01T11:44:23;5.80;;;5.30;;
47912;SDS011;33676;51.006;17.180;2023-04-01T11:50:38;4.60;;;4.30;;
47912;SDS011;33676;51.006;17.180;2023-04-01T11:57:22;7.50;;;6.80;;
47912;SDS011;33676;51.006;17.180;2023-04-01T12:00:25;4.90;;;4.60;;
47912;SDS011;33676;51.006;17.180;2023-04-01T12:12:32;4.60;;;4.20;;
47912;SDS011;33676;51.006;17.180;2023-04-01T12:22:54;4.50;;;4.20;;
47912;SDS011;33676;51.006;17.180;2023-04-01T12:32:01;1.30;;;1.30;;
47912;SDS011;33676;51.006;17.180;2023-04-01T12:35:17;1.80;;;1.70;;
47912;SDS011;33676;51.006;17.180;2023-04-01T12:44:23;3.80;;;3.10;;
47912;SDS011;33676;51.006;17.180;2023-04-01T12:47:44;1.80;;;1.70;;
47912;SDS011;33676;51.006;17.180;2023-04-01T12:55:09;2.10;;;1.90;;
47912;SDS011;33676;51.006;17.180;2023-04-01T13:01:30;2.30;;;2.10;;
47912;SDS011;33676;51.006;17.180;2023-04-01T13:11:56;1.60;;;1.50;;
47912;SDS011;33676;51.006;17.180;2023-04-01T13:15:07;1.20;;;1.20;;
47912;SDS011;33676;51.006;17.180;2023-04-01T13:18:35;1.90;;;1.50;;
47912;SDS011;33676;51.006;17.180;2023-04-01T13:21:41;2.00;;;1.70;;
47912;SDS011;33676;51.006;17.180;2023-04-01T13:24:45;2.40;;;1.80;;
47912;SDS011;33676;51.006;17.180;2023-04-01T13:27:25;4.50;;;4.20;;
47912;SDS011;33676;51.006;17.180;2023-04-01T13:37:08;2.20;;;2.10;;
47912;SDS011;33676;51.006;17.180;2023-04-01T13:42:54;2.70;;;2.50;;
47912;SDS011;33676;51.006;17.180;2023-04-01T13:46:05;2.90;;;2.70;;
47912;SDS011;33676;51.006;17.180;2023-04-01T14:01:58;3.20;;;3.00;;
47912;SDS011;33676;51.006;17.180;2023-04-01T14:14:21;4.70;;;3.40;;
47912;SDS011;33676;51.006;17.180;2023-04-01T14:17:56;2.70;;;2.50;;
47912;SDS011;33676;51.006;17.180;2023-04-01T14:21:19;5.70;;;3.60;;
47912;SDS011;33676;51.006;17.180;2023-04-01T14:24:18;4.40;;;3.90;;
47912;SDS011;33676;51.006;17.180;2023-04-01T14:46:52;3.10;;;2.90;;
47912;SDS011;33676;51.006;17.180;2023-04-01T14:49:39;3.20;;;3.00;;
47912;SDS011;33676;51.006;17.180;2023-04-01T14:52:16;3.30;;;3.00;;
47912;SDS011;33676;51.006;17.180;2023-04-01T14:54:56;3.10;;;2.80;;
47912;SDS011;33676;51.006;17.180;2023-04-01T14:57:31;3.00;;;2.40;;
47912;SDS011;33676;51.006;17.180;2023-04-01T15:00:19;3.30;;;2.60;;
47912;SDS011;33676;51.006;17.180;2023-04-01T15:03:09;7.00;;;6.40;;
47912;SDS011;33676;51.006;17.180;2023-04-01T15:08:53;3.20;;;2.60;;
47912;SDS011;33676;51.006;17.180;2023-04-01T15:11:48;3.20;;;2.90;;
47912;SDS011;33676;51.006;17.180;2023-04-01T15:14:51;3.50;;;3.20;;
47912;SDS011;33676;51.006;17.180;2023-04-01T15:17:47;6.60;;;4.40;;
47912;SDS011;33676;51.006;17.180;2023-04-01T15:20:49;7.90;;;6.40;;
47912;SDS011;33676;51.006;17.180;2023-04-01T15:24:00;5.50;;;4.40;;
47912;SDS011;33676;51.006;17.180;2023-04-01T15:45:41;2.80;;;2.60;;
47912;SDS011;33676;51.006;17.180;2023-04-01T15:54:03;3.20;;;2.80;;
47912;SDS011;33676;51.006;17.180;2023-04-01T16:00:13;3.30;;;3.00;;
47912;SDS011;33676;51.006;17.180;2023-04-01T16:03:10;4.80;;;4.30;;
47912;SDS011;33676;51.006;17.180;2023-04-01T16:06:09;4.50;;;4.20;;
47912;SDS011;33676;51.006;17.180;2023-04-01T16:21:04;5.30;;;4.90;;
47912;SDS011;33676;51.006;17.180;2023-04-01T16:33:22;7.10;;;6.50;;
47912;SDS011;33676;51.006;17.180;2023-04-01T16:42:25;8.40;;;7.60;;
47912;SDS011;33676;51.006;17.180;2023-04-01T16:47:47;7.50;;;6.90;;
47912;SDS011;33676;51.006;17.180;2023-04-01T16:50:25;8.20;;;7.40;;
47912;SDS011;33676;51.006;17.180;2023-04-01T16:53:17;7.50;;;6.90;;
47912;SDS011;33676;51.006;17.180;2023-04-01T16:58:41;6.00;;;5.50;;
47912;SDS011;33676;51.006;17.180;2023-04-01T17:01:24;5.20;;;4.70;;
47912;SDS011;33676;51.006;17.180;2023-04-01T17:04:00;7.50;;;6.90;;
47912;SDS011;33676;51.006;17.180;2023-04-01T17:06:49;20.50;;;18.10;;
47912;SDS011;33676;51.006;17.180;2023-04-01T17:12:47;13.50;;;12.10;;
47912;SDS011;33676;51.006;17.180;2023-04-01T17:18:43;9.10;;;7.80;;
47912;SDS011;33676;51.006;17.180;2023-04-01T17:21:44;8.00;;;7.20;;
47912;SDS011;33676;51.006;17.180;2023-04-01T17:24:59;6.80;;;6.30;;
47912;SDS011;33676;51.006;17.180;2023-04-01T17:28:09;6.90;;;6.40;;
47912;SDS011;33676;51.006;17.180;2023-04-01T17:35:09;8.40;;;7.60;;
47912;SDS011;33676;51.006;17.180;2023-04-01T17:47:19;25.50;;;23.20;;
47912;SDS011;33676;51.006;17.180;2023-04-01T17:55:54;20.60;;;18.70;;
47912;SDS011;33676;51.006;17.180;2023-04-01T17:58:47;18.40;;;16.60;;
47912;SDS011;33676;51.006;17.180;2023-04-01T18:04:40;18.00;;;14.10;;
47912;SDS011;33676;51.006;17.180;2023-04-01T18:07:30;53.90;;;35.00;;
47912;SDS011;33676;51.006;17.180;2023-04-01T18:19:32;25.40;;;21.50;;
47912;SDS011;33676;51.006;17.180;2023-04-01T18:25:18;30.30;;;23.40;;
47912;SDS011;33676;51.006;17.180;2023-04-01T18:27:53;27.10;;;21.30;;
47912;SDS011;33676;51.006;17.180;2023-04-01T18:33:34;99.40;;;73.60;;
47912;SDS011;33676;51.006;17.180;2023-04-01T18:39:22;115.70;;;89.80;;
47912;SDS011;33676;51.006;17.180;2023-04-01T18:42:17;166.70;;;135.60;;
47912;SDS011;33676;51.006;17.180;2023-04-01T18:50:56;65.80;;;53.40;;
47912;SDS011;33676;51.006;17.180;2023-04-01T18:56:37;83.70;;;71.60;;
47912;SDS011;33676;51.006;17.180;2023-04-01T18:59:22;43.60;;;38.80;;
47912;SDS011;33676;51.006;17.180;2023-04-01T19:10:31;23.40;;;20.90;;
47912;SDS011;33676;51.006;17.180;2023-04-01T19:13:36;23.40;;;21.00;;
47912;SDS011;33676;51.006;17.180;2023-04-01T19:16:31;21.90;;;19.60;;
47912;SDS011;33676;51.006;17.180;2023-04-01T19:25:28;30.80;;;26.90;;
47912;SDS011;33676;51.006;17.180;2023-04-01T19:30:58;30.00;;;26.90;;
47912;SDS011;33676;51.006;17.180;2023-04-01T19:39:39;28.10;;;23.60;;
47912;SDS011;33676;51.006;17.180;2023-04-01T19:45:43;31.50;;;28.00;;
47912;SDS011;33676;51.006;17.180;2023-04-01T20:00:02;26.70;;;23.40;;
47912;SDS011;33676;51.006;17.180;2023-04-01T20:06:29;28.80;;;25.00;;
47912;SDS011;33676;51.006;17.180;2023-04-01T20:10:17;35.60;;;28.50;;
47912;SDS011;33676;51.006;17.180;2023-04-01T20:15:46;29.80;;;26.60;;
47912;SDS011;33676;51.006;17.180;2023-04-01T20:21:23;31.20;;;26.70;;
47912;SDS011;33676;51.006;17.180;2023-04-01T20:24:05;30.60;;;27.30;;
47912;SDS011;33676;51.006;17.180;2023-04-01T20:26:48;32.00;;;26.60;;
47912;SDS011;33676;51.006;17.180;2023-04-01T20:29:41;28.80;;;25.70;;
47912;SDS011;33676;51.006;17.180;2023-04-01T20:53:29;31.60;;;27.20;;
47912;SDS011;33676;51.006;17.180;2023-04-01T21:02:28;35.50;;;29.50;;
47912;SDS011;33676;51.006;17.180;2023-04-01T21:05:20;33.80;;;28.30;;
47912;SDS011;33676;51.006;17.180;2023-04-01T21:08:53;32.30;;;28.00;;
47912;SDS011;33676;51.006;17.180;2023-04-01T21:27:26;38.10;;;31.90;;
47912;SDS011;33676;51.006;17.180;2023-04-01T21:30:51;37.90;;;31.40;;
47912;SDS011;33676;51.006;17.180;2023-04-01T21:43:02;36.20;;;31.00;;
47912;SDS011;33676;51.006;17.180;2023-04-01T21:49:09;39.00;;;31.50;;
47912;SDS011;33676;51.006;17.180;2023-04-01T21:55:24;39.00;;;31.20;;
47912;SDS011;33676;51.006;17.180;2023-04-01T22:06:42;37.50;;;32.80;;
47912;SDS011;33676;51.006;17.180;2023-04-01T22:09:25;39.60;;;33.10;;
47912;SDS011;33676;51.006;17.180;2023-04-01T22:12:14;42.40;;;31.30;;
47912;SDS011;33676;51.006;17.180;2023-04-01T22:21:31;44.40;;;33.30;;
47912;SDS011;33676;51.006;17.180;2023-04-01T22:33:04;39.80;;;33.40;;
47912;SDS011;33676;51.006;17.180;2023-04-01T22:35:46;38.40;;;33.60;;
47912;SDS011;33676;51.006;17.180;2023-04-01T22:38:45;41.40;;;33.80;;
47912;SDS011;33676;51.006;17.180;2023-04-01T22:53:23;38.90;;;30.50;;
47912;SDS011;33676;51.006;17.180;2023-04-01T22:56:16;36.50;;;31.20;;
47912;SDS011;33676;51.006;17.180;2023-04-01T22:59:00;40.10;;;34.30;;
47912;SDS011;33676;51.006;17.180;2023-04-01T23:01:38;35.70;;;31.90;;
47912;SDS011;33676;51.006;17.180;2023-04-01T23:04:16;38.00;;;32.10;;
47912;SDS011;33676;51.006;17.180;2023-04-01T23:06:52;37.90;;;31.70;;
47912;SDS011;33676;51.006;17.180;2023-04-01T23:09:27;34.80;;;30.50;;
47912;SDS011;33676;51.006;17.180;2023-04-01T23:12:07;34.80;;;29.60;;
47912;SDS011;33676;51.006;17.180;2023-04-01T23:14:48;35.70;;;30.40;;
47912;SDS011;33676;51.006;17.180;2023-04-01T23:20:24;32.50;;;29.00;;
47912;SDS011;33676;51.006;17.180;2023-04-01T23:25:57;35.60;;;30.50;;
47912;SDS011;33676;51.006;17.180;2023-04-01T23:28:47;35.10;;;30.50;;
47912;SDS011;33676;51.006;17.180;2023-04-01T23:31:30;35.10;;;31.10;;
47912;SDS011;33676;51.006;17.180;2023-04-01T23:34:20;36.20;;;30.40;;
47912;SDS011;33676;51.006;17.180;2023-04-01T23:36:54;28.40;;;25.20;;
47912;SDS011;33676;51.006;17.180;2023-04-01T23:39:38;28.60;;;25.60;;
47912;SDS011;33676;51.006;17.180;2023-04-01T23:42:26;23.90;;;21.40;;
47912;SDS011;33676;51.006;17.180;2023-04-01T23:45:01;24.80;;;22.20;;
47912;SDS011;33676;51.006;17.180;2023-04-01T23:47:36;24.20;;;21.70;;
47912;SDS011;33676;51.006;17.180;2023-04-01T23:50:10;24.20;;;21.60;;
47912;SDS011;33676;51.006;17.180;2023-04-01T23:52:46;23.60;;;21.10;;
47912;SDS011;33676;51.006;17.180;2023-04-01T23:55:24;21.80;;;19.60;;
47912;SDS011;33676;51.006;17.180;2023-04-01T23:58:25;19.90;;;17.90;;
